createdAt,value
2023-02-16T00:01:29.604Z,7.50
2023-02-16T00:03:57.756Z,9.60
2023-02-16T00:06:26.700Z,7.70
2023-02-16T00:08:55.979Z,8.80
2023-02-16T00:11:53.139Z,9.60
2023-02-16T00:14:27.241Z,7.80
2023-02-16T00:16:56.728Z,9.50
2023-02-16T00:19:38.730Z,6.90
2023-02-16T00:22:08.704Z,7.60
2023-02-16T00:24:37.764Z,7.10
2023-02-16T00:27:13.460Z,6.90
2023-02-16T00:29:42.191Z,6.40
2023-02-16T00:32:12.309Z,7.10
2023-02-16T00:34:42.150Z,7.70
2023-02-16T00:37:13.470Z,9.00
2023-02-16T00:39:43.953Z,7.60
2023-02-16T00:42:13.741Z,6.10
2023-02-16T00:44:47.166Z,8.00
2023-02-16T00:47:37.440Z,6.90
2023-02-16T00:50:16.180Z,6.50
2023-02-16T00:52:47.608Z,7.30
2023-02-16T00:55:21.014Z,6.90
2023-02-16T00:58:12.217Z,6.30
2023-02-16T01:00:45.288Z,9.90
2023-02-16T01:03:19.324Z,6.60
2023-02-16T01:08:36.798Z,9.40
2023-02-16T01:11:13.092Z,6.70
2023-02-16T01:13:47.716Z,6.40
2023-02-16T01:16:18.959Z,7.30
2023-02-16T01:18:47.505Z,5.40
2023-02-16T01:21:15.898Z,7.10
2023-02-16T01:23:44.322Z,5.20
2023-02-16T01:26:17.475Z,5.20
2023-02-16T01:28:48.012Z,5.60
2023-02-16T01:31:17.851Z,6.20
2023-02-16T01:33:46.471Z,6.90
2023-02-16T01:36:27.925Z,5.40
2023-02-16T01:38:56.145Z,5.60
2023-02-16T01:42:04.901Z,7.00
2023-02-16T01:44:41.706Z,6.10
2023-02-16T01:47:47.337Z,4.80
2023-02-16T01:50:23.902Z,5.70
2023-02-16T01:52:57.005Z,7.60
2023-02-16T01:55:30.264Z,6.80
2023-02-16T01:58:17.412Z,6.00
2023-02-16T02:00:52.135Z,6.70
2023-02-16T02:03:47.424Z,8.60
2023-02-16T02:06:24.602Z,6.70
2023-02-16T02:09:00.185Z,6.60
2023-02-16T02:11:38.702Z,9.50
2023-02-16T02:14:13.843Z,7.40
2023-02-16T02:16:53.867Z,9.10
2023-02-16T02:19:22.634Z,9.00
2023-02-16T02:22:47.906Z,6.60
2023-02-16T02:25:30.133Z,6.90
2023-02-16T02:35:58.566Z,5.90
2023-02-16T02:38:40.960Z,6.40
2023-02-16T02:41:56.268Z,5.40
2023-02-16T02:44:27.205Z,6.70
2023-02-16T02:46:56.518Z,5.10
2023-02-16T02:49:24.989Z,4.60
2023-02-16T02:51:53.217Z,4.60
2023-02-16T02:54:42.853Z,5.80
2023-02-16T02:57:51.503Z,6.50
2023-02-16T03:00:38.507Z,6.30
2023-02-16T03:03:33.468Z,6.40
2023-02-16T03:06:11.751Z,8.40
2023-02-16T03:08:41.107Z,7.10
2023-02-16T03:11:38.528Z,5.10
2023-02-16T03:14:20.941Z,7.40
2023-02-16T03:17:19.400Z,5.60
2023-02-16T03:20:09.931Z,5.70
2023-02-16T03:22:56.957Z,5.40
2023-02-16T03:25:46.320Z,6.50
2023-02-16T03:28:33.389Z,6.90
2023-02-16T03:31:02.176Z,7.00
2023-02-16T03:33:30.886Z,6.40
2023-02-16T03:35:59.037Z,8.30
2023-02-16T03:38:29.205Z,5.50
2023-02-16T03:40:57.438Z,5.40
2023-02-16T03:43:26.757Z,5.10
2023-02-16T03:45:54.898Z,4.40
2023-02-16T03:48:23.423Z,4.40
2023-02-16T03:50:51.737Z,6.70
2023-02-16T03:53:21.220Z,4.30
2023-02-16T03:55:50.098Z,4.80
2023-02-16T03:58:20.968Z,5.30
2023-02-16T04:00:50.129Z,4.90
2023-02-16T04:03:19.633Z,5.80
2023-02-16T04:05:49.070Z,6.00
2023-02-16T04:08:18.680Z,6.90
2023-02-16T04:10:48.256Z,6.10
2023-02-16T04:13:17.196Z,5.60
2023-02-16T04:15:45.456Z,5.00
2023-02-16T04:18:14.498Z,5.70
2023-02-16T04:20:43.360Z,10.20
2023-02-16T04:23:11.694Z,5.80
2023-02-16T04:25:39.935Z,5.20
2023-02-16T04:28:08.484Z,8.60
2023-02-16T04:30:37.368Z,8.10
2023-02-16T04:33:06.653Z,5.70
2023-02-16T04:35:34.925Z,6.10
2023-02-16T04:38:05.044Z,6.60
2023-02-16T04:40:34.273Z,6.00
2023-02-16T04:43:02.626Z,6.20
2023-02-16T04:45:32.866Z,5.10
2023-02-16T04:48:00.937Z,6.80
2023-02-16T04:50:30.327Z,5.50
2023-02-16T04:52:58.745Z,7.50
2023-02-16T04:55:26.780Z,8.40
2023-02-16T04:57:54.955Z,9.60
2023-02-16T05:00:23.237Z,8.10
2023-02-16T05:02:51.385Z,6.00
2023-02-16T05:05:19.530Z,8.10
2023-02-16T05:07:47.858Z,7.90
2023-02-16T05:10:16.041Z,8.10
2023-02-16T05:13:04.401Z,5.20
2023-02-16T05:15:35.031Z,5.50
2023-02-16T05:18:09.651Z,8.10
2023-02-16T05:20:57.044Z,7.50
2023-02-16T05:23:25.912Z,7.10
2023-02-16T05:25:54.442Z,6.60
2023-02-16T05:28:22.865Z,7.00
2023-02-16T05:30:51.306Z,7.90
2023-02-16T05:33:20.296Z,7.70
2023-02-16T05:35:48.492Z,11.30
2023-02-16T05:38:18.132Z,16.20
2023-02-16T05:40:46.847Z,10.20
2023-02-16T05:43:16.204Z,11.10
2023-02-16T05:45:44.630Z,11.70
2023-02-16T05:48:16.330Z,13.30
2023-02-16T05:50:45.535Z,13.10
2023-02-16T05:53:14.969Z,9.90
2023-02-16T05:55:44.435Z,9.10
2023-02-16T05:58:13.176Z,10.30
2023-02-16T06:00:41.531Z,8.20
2023-02-16T06:03:12.340Z,8.10
2023-02-16T06:05:42.749Z,9.10
2023-02-16T06:08:18.274Z,10.90
2023-02-16T06:10:46.696Z,7.90
2023-02-16T06:13:19.365Z,11.20
2023-02-16T06:15:48.336Z,6.30
2023-02-16T06:18:18.856Z,8.50
2023-02-16T06:20:48.605Z,8.30
2023-02-16T06:23:19.835Z,8.80
2023-02-16T06:25:52.238Z,6.80
2023-02-16T06:28:26.173Z,8.70
2023-02-16T06:30:57.626Z,8.20
2023-02-16T06:33:29.266Z,7.80
2023-02-16T06:36:00.198Z,7.60
2023-02-16T06:38:34.848Z,10.60
2023-02-16T06:41:09.916Z,10.90
2023-02-16T06:43:43.746Z,8.70
2023-02-16T06:46:16.098Z,9.00
2023-02-16T06:48:49.293Z,8.30
2023-02-16T06:51:22.869Z,9.50
2023-02-16T06:53:58.552Z,9.10
2023-02-16T06:56:33.265Z,11.20
2023-02-16T06:59:06.183Z,10.40
2023-02-16T07:01:40.488Z,11.80
2023-02-16T07:04:15.994Z,9.20
2023-02-16T07:06:49.589Z,9.50
2023-02-16T07:11:57.099Z,6.90
2023-02-16T07:14:32.438Z,12.50
2023-02-16T07:17:07.312Z,9.60
2023-02-16T07:19:40.561Z,7.90
2023-02-16T07:22:14.921Z,8.70
2023-02-16T07:24:50.827Z,10.00
2023-02-16T07:27:20.228Z,8.50
2023-02-16T07:29:48.440Z,11.00
2023-02-16T07:32:18.666Z,9.70
2023-02-16T07:34:47.260Z,12.30
2023-02-16T07:37:15.633Z,9.00
2023-02-16T07:39:43.900Z,12.10
2023-02-16T07:42:12.150Z,11.40
2023-02-16T07:44:41.509Z,17.20
2023-02-16T07:47:09.656Z,13.40
2023-02-16T07:49:39.229Z,10.80
2023-02-16T07:52:07.716Z,12.40
2023-02-16T07:54:36.340Z,13.60
2023-02-16T07:57:04.649Z,10.90
2023-02-16T07:59:32.784Z,15.80
2023-02-16T08:02:01.170Z,12.00
2023-02-16T08:04:30.972Z,13.00
2023-02-16T08:06:59.462Z,10.60
2023-02-16T08:09:27.712Z,13.60
2023-02-16T08:11:55.986Z,35.10
2023-02-16T08:14:24.367Z,22.90
2023-02-16T08:16:55.470Z,13.30
2023-02-16T08:19:25.022Z,18.70
2023-02-16T08:21:54.738Z,27.50
2023-02-16T08:24:25.370Z,29.70
2023-02-16T08:26:54.061Z,16.70
2023-02-16T08:29:23.253Z,11.80
2023-02-16T08:31:57.036Z,10.90
2023-02-16T08:34:43.521Z,10.00
2023-02-16T08:37:12.765Z,8.50
2023-02-16T08:39:41.762Z,11.10
2023-02-16T08:42:12.194Z,8.70
2023-02-16T08:44:42.266Z,11.50
2023-02-16T08:47:11.116Z,10.30
2023-02-16T08:49:39.620Z,11.30
2023-02-16T08:52:08.061Z,7.90
2023-02-16T08:54:36.771Z,15.20
2023-02-16T08:57:05.148Z,9.70
2023-02-16T08:59:35.157Z,8.80
2023-02-16T09:02:04.199Z,9.20
2023-02-16T09:04:33.726Z,8.90
2023-02-16T09:07:03.202Z,9.20
2023-02-16T09:09:31.538Z,12.50
2023-02-16T09:12:05.197Z,7.60
2023-02-16T09:14:33.380Z,11.10
2023-02-16T09:17:03.179Z,9.30
2023-02-16T09:19:33.401Z,9.40
2023-02-16T09:22:03.388Z,12.40
2023-02-16T09:24:34.207Z,15.30
2023-02-16T09:27:20.364Z,9.80
2023-02-16T09:29:49.826Z,8.20
2023-02-16T09:32:18.333Z,7.60
2023-02-16T09:34:50.077Z,8.40
2023-02-16T09:37:18.204Z,5.90
2023-02-16T09:39:47.382Z,10.60
2023-02-16T09:42:43.349Z,7.60
2023-02-16T09:45:14.379Z,8.90
2023-02-16T09:47:47.609Z,8.90
2023-02-16T09:50:27.637Z,10.00
2023-02-16T09:53:05.628Z,7.90
2023-02-16T09:55:39.796Z,6.30
2023-02-16T09:58:14.952Z,6.70
2023-02-16T10:00:54.142Z,9.00
2023-02-16T10:03:46.067Z,7.70
2023-02-16T10:06:14.129Z,11.20
2023-02-16T10:08:51.874Z,5.30
2023-02-16T10:11:38.272Z,6.60
2023-02-16T10:14:23.519Z,8.80
2023-02-16T10:17:03.683Z,6.40
2023-02-16T10:19:44.450Z,10.50
2023-02-16T10:22:17.570Z,17.40
2023-02-16T10:25:02.196Z,8.20
2023-02-16T10:27:44.712Z,8.00
2023-02-16T10:30:21.455Z,8.10
2023-02-16T10:33:15.728Z,10.60
2023-02-16T10:35:51.501Z,8.60
2023-02-16T10:38:33.911Z,9.00
2023-02-16T10:41:26.494Z,6.30
2023-02-16T10:44:04.542Z,5.40
2023-02-16T10:46:41.845Z,7.20
2023-02-16T10:49:14.401Z,7.70
2023-02-16T10:51:45.613Z,7.40
2023-02-16T10:54:35.846Z,10.90
2023-02-16T10:57:06.507Z,6.50
2023-02-16T10:59:45.075Z,13.40
2023-02-16T11:02:42.320Z,6.30
2023-02-16T11:05:34.482Z,7.10
2023-02-16T11:08:05.506Z,6.40
2023-02-16T11:10:53.335Z,7.30
2023-02-16T11:13:27.494Z,9.80
2023-02-16T11:15:58.726Z,12.90
2023-02-16T11:18:31.935Z,9.50
2023-02-16T11:21:03.428Z,11.70
2023-02-16T11:23:34.726Z,6.50
2023-02-16T11:26:10.192Z,6.60
2023-02-16T11:28:48.796Z,10.40
2023-02-16T11:31:30.973Z,7.20
2023-02-16T11:34:06.124Z,6.40
2023-02-16T11:36:47.994Z,6.50
2023-02-16T11:39:21.661Z,8.70
2023-02-16T11:42:29.463Z,10.70
2023-02-16T11:45:01.499Z,7.30
2023-02-16T11:47:37.719Z,7.30
2023-02-16T11:50:10.179Z,6.40
2023-02-16T11:52:40.457Z,5.00
2023-02-16T11:55:20.256Z,6.80
2023-02-16T11:57:49.091Z,11.10
2023-02-16T12:00:19.854Z,9.30
2023-02-16T12:03:40.730Z,6.10
2023-02-16T12:06:09.593Z,6.90
2023-02-16T12:08:41.309Z,9.50
2023-02-16T12:12:45.500Z,6.80
2023-02-16T12:15:18.698Z,7.30
2023-02-16T12:18:03.971Z,8.20
2023-02-16T12:21:11.845Z,8.70
2023-02-16T12:26:36.183Z,7.90
2023-02-16T12:29:21.443Z,7.70
2023-02-16T12:31:48.998Z,7.20
2023-02-16T12:34:18.936Z,6.70
2023-02-16T12:37:10.150Z,11.40
2023-02-16T12:39:57.806Z,7.90
2023-02-16T12:42:47.767Z,7.70
2023-02-16T12:45:23.051Z,7.20
2023-02-16T12:47:57.016Z,7.20
2023-02-16T12:50:27.078Z,7.50
2023-02-16T12:53:13.440Z,7.20
2023-02-16T12:55:48.423Z,10.90
2023-02-16T12:58:21.978Z,7.90
2023-02-16T13:00:59.433Z,8.10
2023-02-16T13:03:28.861Z,11.40
2023-02-16T13:06:02.358Z,8.30
2023-02-16T13:08:33.671Z,9.90
2023-02-16T13:11:17.118Z,8.00
2023-02-16T13:13:46.709Z,9.80
2023-02-16T13:16:29.890Z,10.30
2023-02-16T13:18:58.109Z,9.60
2023-02-16T13:21:50.559Z,10.20
2023-02-16T13:24:37.343Z,9.70
2023-02-16T13:27:17.659Z,11.30
2023-02-16T13:29:59.796Z,12.80
2023-02-16T13:32:42.415Z,10.00
2023-02-16T13:35:44.777Z,13.90
2023-02-16T13:38:44.713Z,17.00
2023-02-16T13:41:33.839Z,15.00
2023-02-16T13:44:08.042Z,14.30
2023-02-16T13:46:41.660Z,19.40
2023-02-16T13:49:39.751Z,22.90
2023-02-16T13:52:08.079Z,13.10
2023-02-16T13:54:37.361Z,12.00
2023-02-16T13:57:04.034Z,12.50
2023-02-16T13:59:36.800Z,14.10
2023-02-16T14:02:08.996Z,12.80
2023-02-16T14:04:35.776Z,13.20
2023-02-16T14:07:02.923Z,14.70
2023-02-16T14:09:33.074Z,11.30
2023-02-16T14:12:22.240Z,10.80
2023-02-16T14:14:53.586Z,13.50
2023-02-16T14:17:23.169Z,12.10
2023-02-16T14:20:05.505Z,13.60
2023-02-16T14:22:45.240Z,13.40
2023-02-16T14:25:27.039Z,14.70
2023-02-16T14:27:56.288Z,14.10
2023-02-16T14:30:38.460Z,15.20
2023-02-16T14:33:11.638Z,14.10
2023-02-16T14:35:45.559Z,12.50
2023-02-16T14:38:26.523Z,11.20
2023-02-16T14:40:58.504Z,15.70
2023-02-16T14:43:30.272Z,12.40
2023-02-16T14:46:28.724Z,14.50
2023-02-16T14:49:16.467Z,15.50
2023-02-16T14:51:56.332Z,17.70
2023-02-16T14:54:56.922Z,13.20
2023-02-16T14:57:26.195Z,15.50
2023-02-16T15:00:19.237Z,14.70
2023-02-16T15:03:04.435Z,19.20
2023-02-16T15:05:33.683Z,17.90
2023-02-16T15:08:15.957Z,17.60
2023-02-16T15:10:45.954Z,15.20
2023-02-16T15:13:24.119Z,16.10
2023-02-16T15:15:52.901Z,17.30
2023-02-16T15:18:22.515Z,19.10
2023-02-16T15:20:52.469Z,15.20
2023-02-16T15:23:24.562Z,15.30
2023-02-16T15:25:54.268Z,20.90
2023-02-16T15:28:22.895Z,29.50
2023-02-16T15:30:51.831Z,22.50
2023-02-16T15:33:22.343Z,20.20
2023-02-16T15:35:52.954Z,26.10
2023-02-16T15:38:24.950Z,26.90
2023-02-16T15:40:56.024Z,23.20
2023-02-16T15:43:35.105Z,21.20
2023-02-16T15:46:03.901Z,25.50
2023-02-16T15:48:37.796Z,34.40
2023-02-16T15:51:20.404Z,35.70
2023-02-16T15:53:49.095Z,27.30
2023-02-16T15:56:22.411Z,25.60
2023-02-16T15:58:49.851Z,20.20
2023-02-16T18:06:56.251Z,19.40
2023-02-16T18:09:26.050Z,20.10
2023-02-16T18:11:53.180Z,19.40
2023-02-16T18:14:20.434Z,15.70
2023-02-16T18:16:52.566Z,19.10
2023-02-16T18:19:19.437Z,22.40
2023-02-16T18:21:54.411Z,23.40
2023-02-16T18:24:21.971Z,25.20
2023-02-16T18:26:54.113Z,20.00
2023-02-16T18:29:21.491Z,20.60
2023-02-16T18:31:48.972Z,19.80
2023-02-16T18:34:16.463Z,19.40
2023-02-16T18:36:43.400Z,18.70
2023-02-16T18:39:11.232Z,17.40
2023-02-16T18:41:38.381Z,19.50
2023-02-16T18:44:05.765Z,20.20
2023-02-16T18:46:33.318Z,17.50
2023-02-16T18:49:00.314Z,17.00
2023-02-16T18:51:28.774Z,16.70
2023-02-16T18:53:57.110Z,19.20
2023-02-16T18:56:24.167Z,20.10
2023-02-16T18:58:51.315Z,18.50
2023-02-16T19:01:24.644Z,22.70
2023-02-16T19:03:55.380Z,22.30
2023-02-16T19:06:23.153Z,21.50
2023-02-16T19:08:53.009Z,22.10
2023-02-16T19:11:21.638Z,19.30
2023-02-16T19:13:48.497Z,21.80
2023-02-16T19:16:19.576Z,20.80
2023-02-16T19:18:47.038Z,20.20
2023-02-16T19:21:14.022Z,18.30
2023-02-16T19:23:41.306Z,16.50
2023-02-16T19:26:11.150Z,17.20
2023-02-16T19:28:38.841Z,20.60
2023-02-16T19:31:07.384Z,20.50
2023-02-16T19:33:36.113Z,19.50
2023-02-16T19:36:05.827Z,17.60
2023-02-16T19:38:33.273Z,18.70
2023-02-16T19:41:00.537Z,21.30
2023-02-16T19:43:27.681Z,15.10
2023-02-16T19:45:55.092Z,17.40
2023-02-16T19:48:23.204Z,16.70
2023-02-16T19:50:50.155Z,18.60
2023-02-16T19:53:17.000Z,20.80
2023-02-16T19:55:44.253Z,21.00
2023-02-16T19:58:11.398Z,22.00
2023-02-16T20:00:38.420Z,21.80
2023-02-16T20:03:06.219Z,19.50
2023-02-16T20:05:32.986Z,21.50
2023-02-16T20:08:04.003Z,23.00
2023-02-16T20:10:32.754Z,21.90
2023-02-16T20:13:00.139Z,22.30
2023-02-16T20:15:28.328Z,19.80
2023-02-16T20:17:55.843Z,21.70
2023-02-16T20:20:26.595Z,22.00
2023-02-16T20:22:54.601Z,24.30
2023-02-16T20:25:21.848Z,22.40
2023-02-16T20:27:49.220Z,23.70
2023-02-16T20:30:19.197Z,24.90
2023-02-16T20:32:49.017Z,25.30
2023-02-16T20:35:16.093Z,21.30
2023-02-16T20:37:43.693Z,24.50
2023-02-16T20:40:11.449Z,21.10
2023-02-16T20:42:40.610Z,25.60
2023-02-16T20:45:08.084Z,22.60
2023-02-16T20:47:35.093Z,24.10
2023-02-16T20:50:02.081Z,25.00
2023-02-16T20:52:28.984Z,25.70
2023-02-16T20:54:56.364Z,22.90
2023-02-16T20:57:27.182Z,24.60
2023-02-16T20:59:55.629Z,22.60
2023-02-16T21:02:22.849Z,23.40
2023-02-16T21:04:53.908Z,20.10
2023-02-16T21:07:20.658Z,21.00
2023-02-16T21:09:47.568Z,21.10
2023-02-16T21:12:14.930Z,24.60
2023-02-16T21:14:41.630Z,18.50
2023-02-16T21:17:08.847Z,20.90
2023-02-16T21:19:37.312Z,25.00
2023-02-16T21:22:08.070Z,18.30
2023-02-16T21:24:35.846Z,19.30
2023-02-16T21:27:02.534Z,19.00
2023-02-16T21:29:29.261Z,15.40
2023-02-16T21:31:56.142Z,14.70
2023-02-16T21:34:22.833Z,15.80
2023-02-16T21:36:49.598Z,18.90
2023-02-16T21:39:16.431Z,16.00
2023-02-16T21:41:43.038Z,16.70
2023-02-16T21:44:13.663Z,18.70
2023-02-16T21:46:42.450Z,16.60
2023-02-16T21:49:16.869Z,18.50
2023-02-16T21:51:44.281Z,18.40
2023-02-16T21:54:14.293Z,18.30
2023-02-16T21:56:47.719Z,17.40
2023-02-16T21:59:16.467Z,20.10
2023-02-16T22:01:45.198Z,22.60
2023-02-16T22:04:13.695Z,24.40
2023-02-16T22:06:43.123Z,21.40
2023-02-16T22:09:11.927Z,19.90
2023-02-16T22:11:39.577Z,18.40
2023-02-16T22:14:06.267Z,19.20
2023-02-16T22:16:38.487Z,17.50
2023-02-16T22:19:07.595Z,19.30
2023-02-16T22:21:36.019Z,22.60
2023-02-16T22:24:03.275Z,21.60
2023-02-16T22:26:31.046Z,24.70
2023-02-16T22:28:58.648Z,32.90
2023-02-16T22:31:26.111Z,37.80
2023-02-16T22:34:00.508Z,42.30
2023-02-16T22:36:27.334Z,42.20
2023-02-16T22:38:55.336Z,43.50
2023-02-16T22:41:22.327Z,47.80
2023-02-16T22:43:52.815Z,42.40
2023-02-16T22:46:19.782Z,39.00
2023-02-16T22:48:48.608Z,34.30
2023-02-16T22:51:15.924Z,36.00
2023-02-16T22:53:42.984Z,34.60
2023-02-16T22:56:15.059Z,38.10
2023-02-16T22:58:41.834Z,42.10
2023-02-16T23:01:20.896Z,37.60
2023-02-16T23:06:21.474Z,29.80
2023-02-16T23:08:53.275Z,27.80
2023-02-16T23:11:23.110Z,29.80
2023-02-16T23:13:49.733Z,28.10
2023-02-16T23:16:18.201Z,33.70
2023-02-16T23:18:45.054Z,32.40
2023-02-16T23:21:16.857Z,33.70
2023-02-16T23:23:44.754Z,33.30
2023-02-16T23:26:13.079Z,29.70
2023-02-16T23:28:40.590Z,31.80
2023-02-16T23:31:07.468Z,31.60
2023-02-16T23:33:36.976Z,29.80
2023-02-16T23:36:04.336Z,27.40
2023-02-16T23:38:32.616Z,27.00
2023-02-16T23:41:02.255Z,30.80
2023-02-16T23:43:29.419Z,29.40
2023-02-16T23:45:56.033Z,39.80
2023-02-16T23:48:23.355Z,35.00
2023-02-16T23:50:51.028Z,34.00
2023-02-16T23:53:18.575Z,28.70
2023-02-16T23:55:55.560Z,29.40
2023-02-16T23:58:22.243Z,26.00
